createdAt,value
2023-02-13T00:01:36.414Z,99641.12
2023-02-13T00:04:39.770Z,99645.31
2023-02-13T00:07:43.039Z,99638.95
2023-02-13T00:10:47.882Z,99633.38
2023-02-13T00:13:51.062Z,99636.08
2023-02-13T00:16:54.064Z,99630.71
2023-02-13T00:19:57.211Z,99627.58
2023-02-13T00:23:00.768Z,99628.66
2023-02-13T00:26:09.960Z,99629.52
2023-02-13T00:29:13.029Z,99629.23
2023-02-13T00:32:16.996Z,99632.48
2023-02-13T00:35:20.133Z,99626.24
2023-02-13T00:38:23.111Z,99622.48
2023-02-13T00:41:26.443Z,99624.15
2023-02-13T00:44:30.107Z,99629.17
2023-02-13T00:47:33.124Z,99624.05
2023-02-13T00:50:36.300Z,99622.41
2023-02-13T00:53:40.366Z,99623.70
2023-02-13T00:56:43.422Z,99618.31
2023-02-13T00:59:46.500Z,99622.66
2023-02-13T01:02:52.701Z,99625.36
2023-02-13T01:05:57.268Z,99619.64
2023-02-13T01:09:00.419Z,99618.64
2023-02-13T01:12:03.898Z,99610.28
2023-02-13T01:15:09.637Z,99605.60
2023-02-13T01:18:18.541Z,99609.66
2023-02-13T01:21:24.342Z,99603.14
2023-02-13T01:24:30.188Z,99608.55
2023-02-13T01:27:33.542Z,99614.46
2023-02-13T01:30:36.724Z,99611.01
2023-02-13T01:33:40.500Z,99604.41
2023-02-13T01:36:43.797Z,99594.94
2023-02-13T01:39:46.993Z,99588.96
2023-02-13T01:42:50.296Z,99582.20
2023-02-13T01:45:57.531Z,99574.09
2023-02-13T01:49:15.445Z,99575.51
2023-02-13T01:52:18.953Z,99579.17
2023-02-13T01:55:22.879Z,99580.39
2023-02-13T01:58:31.899Z,99577.24
2023-02-13T02:01:35.540Z,99579.38
2023-02-13T02:04:41.567Z,99583.02
2023-02-13T02:07:46.313Z,99583.38
2023-02-13T02:10:49.505Z,99583.03
2023-02-13T02:13:54.435Z,99579.08
2023-02-13T02:16:58.010Z,99578.59
2023-02-13T02:20:14.349Z,99580.98
2023-02-13T02:23:54.422Z,99576.75
2023-02-13T02:27:20.006Z,99571.85
2023-02-13T02:30:57.662Z,99572.85
2023-02-13T02:34:45.504Z,99572.36
2023-02-13T02:38:18.303Z,99568.52
2023-02-13T02:41:43.451Z,99569.49
2023-02-13T02:45:10.817Z,99563.24
2023-02-13T02:48:51.349Z,99568.67
2023-02-13T02:52:07.114Z,99565.39
2023-02-13T02:55:16.866Z,99561.36
2023-02-13T02:58:49.579Z,99561.17
2023-02-13T03:02:14.030Z,99565.95
2023-02-13T03:06:02.545Z,99565.73
2023-02-13T03:09:29.946Z,99568.83
2023-02-13T03:13:23.647Z,99571.34
2023-02-13T03:16:45.878Z,99574.06
2023-02-13T03:20:19.543Z,99580.58
2023-02-13T03:23:35.141Z,99579.48
2023-02-13T03:26:50.799Z,99581.95
2023-02-13T03:30:09.627Z,99579.84
2023-02-13T03:33:41.536Z,99584.59
2023-02-13T03:37:18.611Z,99591.69
2023-02-13T03:40:27.086Z,99595.73
2023-02-13T03:43:36.360Z,99590.45
2023-02-13T03:46:47.906Z,99587.20
2023-02-13T03:50:08.240Z,99582.27
2023-02-13T03:53:14.455Z,99580.83
2023-02-13T03:56:39.356Z,99580.16
2023-02-13T03:59:42.504Z,99573.58
2023-02-13T04:02:55.817Z,99576.09
2023-02-13T04:06:14.468Z,99575.47
2023-02-13T04:09:17.689Z,99575.75
2023-02-13T04:12:28.297Z,99579.75
2023-02-13T04:15:50.354Z,99581.86
2023-02-13T04:18:55.563Z,99581.41
2023-02-13T04:22:02.206Z,99579.30
2023-02-13T04:25:05.204Z,99579.27
2023-02-13T04:28:08.323Z,99577.14
2023-02-13T04:31:11.425Z,99580.21
2023-02-13T04:34:14.426Z,99581.67
2023-02-13T04:37:17.476Z,99585.56
2023-02-13T04:40:20.476Z,99586.05
2023-02-13T04:43:23.481Z,99587.87
2023-02-13T04:46:26.796Z,99587.65
2023-02-13T04:49:29.853Z,99588.98
2023-02-13T04:52:33.035Z,99587.42
2023-02-13T04:55:36.281Z,99594.38
2023-02-13T04:58:39.364Z,99594.30
2023-02-13T05:01:42.543Z,99598.83
2023-02-13T05:04:45.788Z,99601.29
2023-02-13T05:07:49.096Z,99599.06
2023-02-13T05:10:52.041Z,99595.88
2023-02-13T05:13:55.470Z,99590.83
2023-02-13T05:16:59.120Z,99584.94
2023-02-13T05:20:02.690Z,99583.09
2023-02-13T05:23:24.028Z,99581.02
2023-02-13T05:26:29.448Z,99579.54
2023-02-13T05:29:32.834Z,99580.53
2023-02-13T05:32:36.706Z,99582.74
2023-02-13T05:35:44.607Z,99588.11
2023-02-13T05:38:55.258Z,99587.45
2023-02-13T05:41:59.038Z,99586.05
2023-02-13T05:45:02.670Z,99584.73
2023-02-13T05:48:26.810Z,99589.58
2023-02-13T05:51:29.789Z,99590.92
2023-02-13T05:54:48.629Z,99587.40
2023-02-13T05:57:58.644Z,99585.48
2023-02-13T06:01:02.730Z,99581.41
2023-02-13T06:04:07.054Z,99576.20
2023-02-13T06:07:17.596Z,99579.98
2023-02-13T06:10:20.886Z,99577.20
2023-02-13T06:13:24.930Z,99578.39
2023-02-13T06:16:28.226Z,99575.67
2023-02-13T06:19:31.900Z,99574.44
2023-02-13T06:22:34.955Z,99582.00
2023-02-13T06:25:38.478Z,99580.31
2023-02-13T06:28:41.802Z,99575.64
2023-02-13T06:31:44.946Z,99579.70
2023-02-13T06:34:48.037Z,99584.01
2023-02-13T06:37:53.080Z,99585.09
2023-02-13T06:41:02.469Z,99579.41
2023-02-13T06:44:06.061Z,99582.56
2023-02-13T06:47:09.253Z,99577.96
2023-02-13T06:50:18.284Z,99580.52
2023-02-13T06:53:25.155Z,99582.11
2023-02-13T06:56:28.639Z,99579.70
2023-02-13T06:59:32.992Z,99577.10
2023-02-13T07:02:37.908Z,99568.97
2023-02-13T07:05:42.367Z,99575.64
2023-02-13T07:08:45.620Z,99574.40
2023-02-13T07:11:48.875Z,99575.19
2023-02-13T07:14:52.498Z,99578.00
2023-02-13T07:17:59.873Z,99582.79
2023-02-13T07:21:03.372Z,99587.52
2023-02-13T07:24:08.488Z,99587.42
2023-02-13T07:27:11.763Z,99592.34
2023-02-13T07:30:15.105Z,99592.40
2023-02-13T07:33:19.143Z,99594.85
2023-02-13T07:36:22.227Z,99588.41
2023-02-13T07:39:25.423Z,99586.23
2023-02-13T07:42:28.444Z,99585.95
2023-02-13T07:45:32.095Z,99588.98
2023-02-13T07:48:34.987Z,99588.31
2023-02-13T07:51:38.242Z,99585.69
2023-02-13T07:54:47.874Z,99592.02
2023-02-13T07:57:51.431Z,99591.92
2023-02-13T08:00:54.606Z,99591.70
2023-02-13T08:03:58.289Z,99597.58
2023-02-13T08:07:01.453Z,99596.29
2023-02-13T08:10:26.521Z,99593.41
2023-02-13T08:13:29.618Z,99586.14
2023-02-13T08:16:32.825Z,99579.77
2023-02-13T08:19:36.331Z,99577.31
2023-02-13T08:22:40.289Z,99585.02
2023-02-13T08:25:43.314Z,99588.40
2023-02-13T08:28:46.294Z,99589.54
2023-02-13T08:31:49.437Z,99588.06
2023-02-13T08:34:52.783Z,99586.11
2023-02-13T08:37:56.989Z,99581.15
2023-02-13T08:41:00.235Z,99577.66
2023-02-13T08:44:03.341Z,99577.40
2023-02-13T08:47:06.964Z,99580.13
2023-02-13T08:50:10.408Z,99581.55
2023-02-13T08:53:13.275Z,99584.14
2023-02-13T08:56:16.852Z,99582.61
2023-02-13T08:59:19.817Z,99584.27
2023-02-13T09:02:22.849Z,99587.10
2023-02-13T09:05:25.850Z,99583.27
2023-02-13T09:08:29.073Z,99580.39
2023-02-13T09:11:32.007Z,99582.92
2023-02-13T09:14:34.869Z,99583.72
2023-02-13T09:17:37.717Z,99586.69
2023-02-13T09:20:40.586Z,99587.75
2023-02-13T09:23:43.473Z,99588.81
2023-02-13T09:26:46.392Z,99585.96
2023-02-13T09:29:49.328Z,99586.02
2023-02-13T09:32:54.061Z,99586.61
2023-02-13T09:35:57.304Z,99589.12
2023-02-13T09:39:00.805Z,99590.23
2023-02-13T09:42:20.831Z,99586.05
2023-02-13T09:45:23.801Z,99583.48
2023-02-13T09:48:30.897Z,99582.45
2023-02-13T09:51:33.722Z,99580.94
2023-02-13T09:54:36.677Z,99580.29
2023-02-13T09:57:52.698Z,99575.61
2023-02-13T10:01:00.796Z,99573.89
2023-02-13T10:04:29.987Z,99570.19
2023-02-13T10:07:49.395Z,99569.20
2023-02-13T10:11:14.079Z,99567.61
2023-02-13T10:14:24.795Z,99567.38
2023-02-13T10:17:36.977Z,99564.87
2023-02-13T10:20:42.215Z,99561.99
2023-02-13T10:23:56.018Z,99565.52
2023-02-13T10:27:02.576Z,99564.65
2023-02-13T10:30:16.463Z,99563.79
2023-02-13T10:33:25.992Z,99563.88
2023-02-13T10:36:36.442Z,99566.73
2023-02-13T10:39:42.240Z,99558.02
2023-02-13T10:42:58.771Z,99557.76
2023-02-13T10:46:20.235Z,99552.73
2023-02-13T10:49:48.177Z,99547.88
2023-02-13T10:53:00.392Z,99546.30
2023-02-13T10:56:27.071Z,99543.50
2023-02-13T10:59:51.124Z,99542.99
2023-02-13T11:02:56.569Z,99542.14
2023-02-13T11:06:05.253Z,99537.83
2023-02-13T11:09:09.947Z,99537.30
2023-02-13T11:12:27.606Z,99537.56
2023-02-13T11:15:33.161Z,99534.28
2023-02-13T11:18:41.477Z,99536.77
2023-02-13T11:21:46.216Z,99531.00
2023-02-13T11:25:02.756Z,99527.16
2023-02-13T11:28:16.596Z,99522.31
2023-02-13T11:31:30.697Z,99518.04
2023-02-13T11:34:34.536Z,99522.02
2023-02-13T11:37:37.566Z,99518.41
2023-02-13T11:40:42.544Z,99523.88
2023-02-13T11:44:20.820Z,99525.11
2023-02-13T11:47:43.412Z,99521.27
2023-02-13T11:50:52.140Z,99521.95
2023-02-13T11:53:59.506Z,99516.48
2023-02-13T11:57:18.834Z,99510.85
2023-02-13T12:00:37.327Z,99500.33
2023-02-13T12:03:41.505Z,99494.63
2023-02-13T12:07:10.634Z,99489.08
2023-02-13T12:10:22.154Z,99484.16
2023-02-13T12:13:31.418Z,99478.95
2023-02-13T12:16:51.743Z,99475.84
2023-02-13T12:19:55.719Z,99472.82
2023-02-13T12:23:09.858Z,99471.39
2023-02-13T12:26:33.565Z,99468.01
2023-02-13T12:30:00.427Z,99465.42
2023-02-13T12:33:34.404Z,99461.11
2023-02-13T12:36:50.253Z,99456.28
2023-02-13T12:40:24.934Z,99457.07
2023-02-13T12:43:57.039Z,99454.91
2023-02-13T12:47:27.164Z,99459.14
2023-02-13T12:51:07.634Z,99465.30
2023-02-13T12:54:41.475Z,99467.09
2023-02-13T12:58:06.378Z,99466.75
2023-02-13T13:01:31.783Z,99470.86
2023-02-13T13:05:01.032Z,99468.95
2023-02-13T13:08:32.111Z,99469.48
2023-02-13T13:11:57.628Z,99477.17
2023-02-13T13:15:17.407Z,99479.19
2023-02-13T13:18:39.287Z,99476.33
2023-02-13T13:22:03.718Z,99483.86
2023-02-13T13:25:27.774Z,99479.44
2023-02-13T13:28:37.941Z,99473.04
2023-02-13T13:31:41.849Z,99471.86
2023-02-13T13:34:46.549Z,99472.34
2023-02-13T13:38:06.485Z,99474.92
2023-02-13T13:41:18.321Z,99474.87
2023-02-13T13:44:42.955Z,99480.25
2023-02-13T13:48:23.506Z,99483.23
2023-02-13T13:51:27.194Z,99483.76
2023-02-13T13:54:35.734Z,99489.87
2023-02-13T13:57:41.874Z,99492.83
2023-02-13T14:00:44.944Z,99489.80
2023-02-13T14:03:48.729Z,99487.88
2023-02-13T14:06:51.706Z,99480.84
2023-02-13T14:09:55.122Z,99478.03
2023-02-13T14:12:58.107Z,99481.15
2023-02-13T14:16:02.304Z,99473.92
2023-02-13T14:19:23.334Z,99476.02
2023-02-13T14:22:55.641Z,99480.41
2023-02-13T14:26:45.675Z,99486.80
2023-02-13T14:29:56.410Z,99487.52
2023-02-13T14:33:06.614Z,99490.45
2023-02-13T14:36:21.899Z,99480.73
2023-02-13T14:39:35.653Z,99475.67
2023-02-13T14:42:40.557Z,99477.14
2023-02-13T14:45:53.298Z,99475.33
2023-02-13T14:49:04.572Z,99479.05
2023-02-13T14:52:26.540Z,99478.33
2023-02-13T14:55:38.324Z,99476.64
2023-02-13T14:59:19.876Z,99468.08
2023-02-13T15:02:25.993Z,99467.36
2023-02-13T15:09:50.093Z,99458.73
2023-02-13T15:14:06.918Z,99456.40
2023-02-13T15:21:35.881Z,99456.05
2023-02-13T15:24:50.096Z,99459.52
2023-02-13T15:27:54.922Z,99458.48
2023-02-13T15:31:03.260Z,99456.09
2023-02-13T15:34:21.600Z,99448.13
2023-02-13T15:37:29.195Z,99449.46
2023-02-13T15:41:08.428Z,99448.08
2023-02-13T15:45:16.757Z,99444.63
2023-02-13T15:48:21.327Z,99441.11
2023-02-13T15:51:28.891Z,99445.69
2023-02-13T15:54:37.053Z,99445.12
2023-02-13T15:57:42.295Z,99443.05
2023-02-13T16:01:29.628Z,99443.94
2023-02-13T16:05:11.359Z,99438.83
2023-02-13T16:08:57.574Z,99439.98
2023-02-13T16:12:27.028Z,99437.22
2023-02-13T16:20:03.518Z,99444.09
2023-02-13T16:23:17.578Z,99446.48
2023-02-13T16:26:22.360Z,99453.42
2023-02-13T16:30:07.901Z,99448.14
2023-02-13T16:33:25.285Z,99438.41
2023-02-13T16:37:08.836Z,99449.06
2023-02-13T16:40:32.352Z,99455.77
2023-02-13T16:43:52.756Z,99455.85
2023-02-13T16:47:35.835Z,99465.25
2023-02-13T16:51:01.299Z,99469.27
2023-02-13T16:54:26.152Z,99468.71
2023-02-13T16:57:50.669Z,99475.26
2023-02-13T17:01:13.323Z,99465.32
2023-02-13T17:05:02.150Z,99469.85
2023-02-13T17:08:46.687Z,99471.16
2023-02-13T17:11:52.757Z,99477.27
2023-02-13T17:15:00.190Z,99475.11
2023-02-13T17:18:03.770Z,99476.79
2023-02-13T17:21:06.854Z,99472.30
2023-02-13T17:24:18.146Z,99474.18
2023-02-13T17:27:22.779Z,99479.89
2023-02-13T17:30:28.898Z,99474.83
2023-02-13T17:33:35.651Z,99470.80
2023-02-13T17:36:38.523Z,99468.97
2023-02-13T17:39:41.384Z,99451.14
2023-02-13T17:42:46.700Z,99449.51
2023-02-13T17:45:50.115Z,99434.50
2023-02-13T17:48:53.123Z,99438.80
2023-02-13T17:51:55.968Z,99440.71
2023-02-13T17:54:59.179Z,99439.02
2023-02-13T17:58:02.562Z,99437.67
2023-02-13T18:01:05.638Z,99445.61
2023-02-13T18:04:08.780Z,99437.98
2023-02-13T18:07:14.501Z,99434.91
2023-02-13T18:10:24.051Z,99426.23
2023-02-13T18:13:26.978Z,99424.88
2023-02-13T18:16:30.988Z,99432.17
2023-02-13T18:19:34.083Z,99425.07
2023-02-13T18:22:37.162Z,99430.85
2023-02-13T18:25:40.205Z,99440.71
2023-02-13T18:28:43.049Z,99441.95
2023-02-13T18:31:45.906Z,99441.98
2023-02-13T18:34:50.184Z,99434.09
2023-02-13T18:37:53.371Z,99438.08
2023-02-13T18:40:56.557Z,99441.80
2023-02-13T18:43:59.670Z,99458.75
2023-02-13T18:47:02.907Z,99454.16
2023-02-13T18:50:06.716Z,99439.80
2023-02-13T18:53:09.922Z,99442.95
2023-02-13T18:56:13.064Z,99449.33
2023-02-13T18:59:16.533Z,99431.97
2023-02-13T19:02:19.815Z,99427.30
2023-02-13T19:05:23.030Z,99425.54
2023-02-13T19:08:55.356Z,99439.77
2023-02-13T19:12:23.057Z,99455.48
2023-02-13T19:15:45.500Z,99447.20
2023-02-13T19:19:11.117Z,99458.39
2023-02-13T19:22:35.488Z,99469.27
2023-02-13T19:25:41.978Z,99466.92
2023-02-13T19:29:06.977Z,99462.39
2023-02-13T19:32:13.497Z,99459.84
2023-02-13T19:35:17.121Z,99465.53
2023-02-13T19:38:22.477Z,99467.80
2023-02-13T19:41:26.691Z,99474.58
2023-02-13T19:44:30.264Z,99478.40
2023-02-13T19:47:35.189Z,99479.67
2023-02-13T19:50:40.768Z,99485.34
2023-02-13T19:53:44.971Z,99486.83
2023-02-13T19:56:49.045Z,99479.88
2023-02-13T20:00:02.718Z,99487.12
2023-02-13T20:03:09.845Z,99491.48
2023-02-13T20:06:36.577Z,99494.02
2023-02-13T20:10:01.171Z,99490.69
2023-02-13T20:13:12.770Z,99498.19
2023-02-13T20:16:55.940Z,99499.78
2023-02-13T20:19:59.096Z,99492.14
2023-02-13T20:23:02.913Z,99491.86
2023-02-13T20:26:14.027Z,99492.99
2023-02-13T20:29:18.267Z,99483.55
2023-02-13T20:32:28.650Z,99482.61
2023-02-13T20:35:35.637Z,99486.68
2023-02-13T20:38:40.067Z,99487.80
2023-02-13T20:41:48.811Z,99487.59
2023-02-13T20:44:51.785Z,99492.65
2023-02-13T20:47:55.604Z,99496.98
2023-02-13T20:51:00.552Z,99500.64
2023-02-13T20:54:07.055Z,99504.43
2023-02-13T20:57:10.282Z,99507.71
2023-02-13T21:00:14.711Z,99511.20
2023-02-13T21:03:17.738Z,99509.20
2023-02-13T21:06:27.930Z,99515.98
2023-02-13T21:09:33.587Z,99518.86
2023-02-13T21:12:36.547Z,99514.92
2023-02-13T21:15:39.436Z,99517.41
2023-02-13T21:18:43.376Z,99514.14
2023-02-13T21:21:46.837Z,99510.05
2023-02-13T21:24:50.622Z,99503.06
2023-02-13T21:27:53.709Z,99498.55
2023-02-13T21:30:57.058Z,99497.16
2023-02-13T21:34:11.987Z,99496.27
2023-02-13T21:37:15.019Z,99498.93
2023-02-13T21:40:18.232Z,99494.08
2023-02-13T21:43:23.018Z,99486.95
2023-02-13T21:46:31.557Z,99487.08
2023-02-13T21:49:35.407Z,99484.41
2023-02-13T21:52:38.721Z,99482.83
2023-02-13T21:55:41.739Z,99480.77
2023-02-13T21:58:45.719Z,99480.17
2023-02-13T22:01:54.174Z,99490.58
2023-02-13T22:04:57.288Z,99489.94
2023-02-13T22:08:12.440Z,99481.79
2023-02-13T22:11:18.518Z,99478.52
2023-02-13T22:14:22.452Z,99475.12
2023-02-13T22:17:25.459Z,99474.84
2023-02-13T22:20:28.433Z,99466.45
2023-02-13T22:23:31.493Z,99464.23
2023-02-13T22:26:37.291Z,99467.23
2023-02-13T22:29:42.700Z,99465.63
2023-02-13T22:32:45.847Z,99464.35
2023-02-13T22:35:49.842Z,99464.54
2023-02-13T22:38:53.239Z,99467.67
2023-02-13T22:41:56.615Z,99461.47
2023-02-13T22:44:59.513Z,99471.48
2023-02-13T22:48:02.684Z,99471.30
2023-02-13T22:51:09.902Z,99469.71
2023-02-13T22:54:12.929Z,99469.52
2023-02-13T22:57:16.021Z,99471.36
2023-02-13T23:00:19.244Z,99468.27
2023-02-13T23:03:23.213Z,99467.66
2023-02-13T23:06:27.138Z,99468.00
2023-02-13T23:09:30.374Z,99469.92
2023-02-13T23:12:36.186Z,99468.61
2023-02-13T23:15:39.331Z,99464.45
2023-02-13T23:18:42.548Z,99464.21
2023-02-13T23:21:45.472Z,99463.30
2023-02-13T23:24:48.334Z,99465.33
2023-02-13T23:27:51.327Z,99463.98
2023-02-13T23:30:54.420Z,99467.70
2023-02-13T23:33:57.530Z,99463.30
2023-02-13T23:37:00.468Z,99460.23
2023-02-13T23:40:05.264Z,99457.39
2023-02-13T23:43:08.279Z,99455.60
2023-02-13T23:46:11.200Z,99456.17
2023-02-13T23:49:14.182Z,99453.44
2023-02-13T23:52:17.261Z,99456.91
2023-02-13T23:55:20.196Z,99455.64
2023-02-13T23:58:23.584Z,99455.73
